sensor_id;sensor_type;location;lat;lon;timestamp;P1;durP1;ratioP1;P2;durP2;ratioP2
11396;SDS011;5754;43.726;7.416;2023-05-28T00:01:00;11.15;;;6.35;;
11396;SDS011;5754;43.726;7.416;2023-05-28T00:03:37;11.00;;;6.43;;
11396;SDS011;5754;43.726;7.416;2023-05-28T00:06:13;8.85;;;6.05;;
11396;SDS011;5754;43.726;7.416;2023-05-28T00:08:49;8.20;;;5.73;;
11396;SDS011;5754;43.726;7.416;2023-05-28T00:11:25;6.47;;;5.37;;
11396;SDS011;5754;43.726;7.416;2023-05-28T00:14:00;8.20;;;5.32;;
11396;SDS011;5754;43.726;7.416;2023-05-28T00:16:36;7.93;;;5.73;;
11396;SDS011;5754;43.726;7.416;2023-05-28T00:19:11;6.95;;;5.57;;
11396;SDS011;5754;43.726;7.416;2023-05-28T00:21:47;9.25;;;5.57;;
11396;SDS011;5754;43.726;7.416;2023-05-28T00:24:22;9.20;;;6.05;;
11396;SDS011;5754;43.726;7.416;2023-05-28T00:26:57;10.23;;;5.57;;
11396;SDS011;5754;43.726;7.416;2023-05-28T00:29:33;7.65;;;5.57;;
11396;SDS011;5754;43.726;7.416;2023-05-28T00:32:09;8.00;;;6.50;;
11396;SDS011;5754;43.726;7.416;2023-05-28T00:34:45;6.83;;;5.50;;
11396;SDS011;5754;43.726;7.416;2023-05-28T00:37:20;7.82;;;5.80;;
11396;SDS011;5754;43.726;7.416;2023-05-28T00:39:59;8.90;;;6.33;;
11396;SDS011;5754;43.726;7.416;2023-05-28T00:42:34;12.20;;;6.85;;
11396;SDS011;5754;43.726;7.416;2023-05-28T00:45:10;9.85;;;5.72;;
11396;SDS011;5754;43.726;7.416;2023-05-28T00:47:48;8.52;;;5.62;;
11396;SDS011;5754;43.726;7.416;2023-05-28T00:50:24;7.90;;;5.87;;
11396;SDS011;5754;43.726;7.416;2023-05-28T00:52:59;9.13;;;5.57;;
11396;SDS011;5754;43.726;7.416;2023-05-28T00:55:35;6.83;;;5.63;;
11396;SDS011;5754;43.726;7.416;2023-05-28T00:58:11;7.32;;;5.53;;
11396;SDS011;5754;43.726;7.416;2023-05-28T01:00:46;7.68;;;6.12;;
11396;SDS011;5754;43.726;7.416;2023-05-28T01:03:22;9.95;;;6.00;;
11396;SDS011;5754;43.726;7.416;2023-05-28T01:05:58;13.97;;;6.73;;
11396;SDS011;5754;43.726;7.416;2023-05-28T01:08:36;12.20;;;6.90;;
11396;SDS011;5754;43.726;7.416;2023-05-28T01:11:23;9.57;;;7.07;;
11396;SDS011;5754;43.726;7.416;2023-05-28T01:14:02;10.82;;;6.93;;
11396;SDS011;5754;43.726;7.416;2023-05-28T01:16:37;10.02;;;6.22;;
11396;SDS011;5754;43.726;7.416;2023-05-28T01:19:12;7.28;;;6.22;;
11396;SDS011;5754;43.726;7.416;2023-05-28T01:21:51;8.93;;;6.15;;
11396;SDS011;5754;43.726;7.416;2023-05-28T01:24:34;7.78;;;5.85;;
11396;SDS011;5754;43.726;7.416;2023-05-28T01:27:16;10.95;;;5.90;;
11396;SDS011;5754;43.726;7.416;2023-05-28T01:29:53;8.13;;;5.57;;
11396;SDS011;5754;43.726;7.416;2023-05-28T01:32:28;9.77;;;5.20;;
11396;SDS011;5754;43.726;7.416;2023-05-28T01:35:06;7.20;;;5.27;;
11396;SDS011;5754;43.726;7.416;2023-05-28T01:37:49;9.32;;;5.75;;
11396;SDS011;5754;43.726;7.416;2023-05-28T01:40:26;7.27;;;5.00;;
11396;SDS011;5754;43.726;7.416;2023-05-28T01:43:02;7.53;;;5.65;;
11396;SDS011;5754;43.726;7.416;2023-05-28T01:45:39;5.57;;;4.95;;
11396;SDS011;5754;43.726;7.416;2023-05-28T01:48:13;6.90;;;5.28;;
11396;SDS011;5754;43.726;7.416;2023-05-28T01:50:49;8.75;;;5.10;;
11396;SDS011;5754;43.726;7.416;2023-05-28T01:53:24;5.87;;;5.23;;
11396;SDS011;5754;43.726;7.416;2023-05-28T01:56:01;7.25;;;5.22;;
11396;SDS011;5754;43.726;7.416;2023-05-28T01:58:35;7.10;;;5.50;;
11396;SDS011;5754;43.726;7.416;2023-05-28T02:01:13;9.02;;;5.57;;
11396;SDS011;5754;43.726;7.416;2023-05-28T02:03:49;8.52;;;5.82;;
11396;SDS011;5754;43.726;7.416;2023-05-28T02:06:37;8.20;;;5.87;;
11396;SDS011;5754;43.726;7.416;2023-05-28T02:09:14;11.73;;;6.70;;
11396;SDS011;5754;43.726;7.416;2023-05-28T02:11:50;8.07;;;5.50;;
11396;SDS011;5754;43.726;7.416;2023-05-28T02:14:25;7.10;;;6.00;;
11396;SDS011;5754;43.726;7.416;2023-05-28T02:17:01;9.77;;;5.28;;
11396;SDS011;5754;43.726;7.416;2023-05-28T02:19:36;7.05;;;5.18;;
11396;SDS011;5754;43.726;7.416;2023-05-28T02:22:11;8.55;;;5.55;;
11396;SDS011;5754;43.726;7.416;2023-05-28T02:24:47;8.37;;;5.20;;
11396;SDS011;5754;43.726;7.416;2023-05-28T02:27:23;6.50;;;5.03;;
11396;SDS011;5754;43.726;7.416;2023-05-28T02:29:58;9.60;;;5.57;;
11396;SDS011;5754;43.726;7.416;2023-05-28T02:32:34;6.35;;;5.60;;
11396;SDS011;5754;43.726;7.416;2023-05-28T02:35:08;9.80;;;6.03;;
11396;SDS011;5754;43.726;7.416;2023-05-28T02:37:43;9.73;;;6.18;;
11396;SDS011;5754;43.726;7.416;2023-05-28T02:40:18;6.33;;;5.73;;
11396;SDS011;5754;43.726;7.416;2023-05-28T02:42:53;6.50;;;5.50;;
11396;SDS011;5754;43.726;7.416;2023-05-28T02:45:29;6.20;;;5.50;;
11396;SDS011;5754;43.726;7.416;2023-05-28T02:48:04;6.85;;;5.70;;
11396;SDS011;5754;43.726;7.416;2023-05-28T02:50:39;8.88;;;5.80;;
11396;SDS011;5754;43.726;7.416;2023-05-28T02:53:37;9.57;;;5.87;;
11396;SDS011;5754;43.726;7.416;2023-05-28T02:56:12;7.87;;;6.03;;
11396;SDS011;5754;43.726;7.416;2023-05-28T02:58:51;10.63;;;5.97;;
11396;SDS011;5754;43.726;7.416;2023-05-28T03:01:26;8.73;;;6.07;;
11396;SDS011;5754;43.726;7.416;2023-05-28T03:04:02;12.00;;;5.68;;
11396;SDS011;5754;43.726;7.416;2023-05-28T03:06:49;7.07;;;5.57;;
11396;SDS011;5754;43.726;7.416;2023-05-28T03:09:26;6.43;;;5.43;;
11396;SDS011;5754;43.726;7.416;2023-05-28T03:12:02;6.30;;;5.70;;
11396;SDS011;5754;43.726;7.416;2023-05-28T03:14:37;7.82;;;5.70;;
11396;SDS011;5754;43.726;7.416;2023-05-28T03:17:13;9.48;;;6.03;;
11396;SDS011;5754;43.726;7.416;2023-05-28T03:19:48;7.00;;;5.65;;
11396;SDS011;5754;43.726;7.416;2023-05-28T03:22:24;7.67;;;5.63;;
11396;SDS011;5754;43.726;7.416;2023-05-28T03:25:00;7.73;;;5.73;;
11396;SDS011;5754;43.726;7.416;2023-05-28T03:27:35;10.60;;;6.10;;
11396;SDS011;5754;43.726;7.416;2023-05-28T03:30:11;5.87;;;5.17;;
11396;SDS011;5754;43.726;7.416;2023-05-28T03:32:54;7.90;;;5.70;;
11396;SDS011;5754;43.726;7.416;2023-05-28T03:35:29;10.07;;;5.43;;
11396;SDS011;5754;43.726;7.416;2023-05-28T03:38:05;9.40;;;5.53;;
11396;SDS011;5754;43.726;7.416;2023-05-28T03:40:40;9.23;;;5.57;;
11396;SDS011;5754;43.726;7.416;2023-05-28T03:43:16;8.30;;;5.62;;
11396;SDS011;5754;43.726;7.416;2023-05-28T03:45:51;7.87;;;5.77;;
11396;SDS011;5754;43.726;7.416;2023-05-28T03:48:27;6.67;;;5.77;;
11396;SDS011;5754;43.726;7.416;2023-05-28T03:51:02;8.93;;;6.30;;
11396;SDS011;5754;43.726;7.416;2023-05-28T03:53:39;7.55;;;5.82;;
11396;SDS011;5754;43.726;7.416;2023-05-28T03:56:15;7.27;;;5.83;;
11396;SDS011;5754;43.726;7.416;2023-05-28T03:58:50;7.00;;;5.82;;
11396;SDS011;5754;43.726;7.416;2023-05-28T04:01:25;8.05;;;5.55;;
11396;SDS011;5754;43.726;7.416;2023-05-28T04:04:01;10.75;;;6.03;;
11396;SDS011;5754;43.726;7.416;2023-05-28T04:06:36;6.63;;;5.93;;
11396;SDS011;5754;43.726;7.416;2023-05-28T04:09:12;9.07;;;5.93;;
11396;SDS011;5754;43.726;7.416;2023-05-28T04:11:50;9.00;;;5.60;;
11396;SDS011;5754;43.726;7.416;2023-05-28T04:14:25;6.85;;;5.70;;
11396;SDS011;5754;43.726;7.416;2023-05-28T04:17:01;8.33;;;5.50;;
11396;SDS011;5754;43.726;7.416;2023-05-28T04:19:37;8.80;;;5.33;;
11396;SDS011;5754;43.726;7.416;2023-05-28T04:22:12;11.73;;;5.43;;
11396;SDS011;5754;43.726;7.416;2023-05-28T04:24:48;10.20;;;6.25;;
11396;SDS011;5754;43.726;7.416;2023-05-28T04:27:24;11.43;;;6.00;;
11396;SDS011;5754;43.726;7.416;2023-05-28T04:30:00;8.60;;;6.30;;
11396;SDS011;5754;43.726;7.416;2023-05-28T04:32:36;10.43;;;5.73;;
11396;SDS011;5754;43.726;7.416;2023-05-28T04:35:12;11.23;;;6.50;;
11396;SDS011;5754;43.726;7.416;2023-05-28T04:37:48;7.15;;;6.07;;
11396;SDS011;5754;43.726;7.416;2023-05-28T04:40:40;9.23;;;5.57;;
11396;SDS011;5754;43.726;7.416;2023-05-28T04:43:15;13.93;;;6.83;;
11396;SDS011;5754;43.726;7.416;2023-05-28T04:45:52;8.07;;;5.90;;
11396;SDS011;5754;43.726;7.416;2023-05-28T04:48:29;8.07;;;6.50;;
11396;SDS011;5754;43.726;7.416;2023-05-28T04:51:08;9.32;;;6.15;;
11396;SDS011;5754;43.726;7.416;2023-05-28T04:53:43;10.70;;;6.30;;
11396;SDS011;5754;43.726;7.416;2023-05-28T04:56:19;8.50;;;6.27;;
11396;SDS011;5754;43.726;7.416;2023-05-28T04:58:54;9.20;;;5.73;;
11396;SDS011;5754;43.726;7.416;2023-05-28T05:01:29;8.85;;;5.95;;
11396;SDS011;5754;43.726;7.416;2023-05-28T05:04:07;7.80;;;6.00;;
11396;SDS011;5754;43.726;7.416;2023-05-28T05:06:43;8.57;;;6.07;;
11396;SDS011;5754;43.726;7.416;2023-05-28T05:09:18;9.77;;;6.50;;
11396;SDS011;5754;43.726;7.416;2023-05-28T05:11:54;8.03;;;6.10;;
11396;SDS011;5754;43.726;7.416;2023-05-28T05:14:29;9.97;;;6.33;;
11396;SDS011;5754;43.726;7.416;2023-05-28T05:17:05;8.77;;;5.80;;
11396;SDS011;5754;43.726;7.416;2023-05-28T05:19:42;8.57;;;5.82;;
11396;SDS011;5754;43.726;7.416;2023-05-28T05:22:18;8.37;;;5.80;;
11396;SDS011;5754;43.726;7.416;2023-05-28T05:24:53;6.43;;;5.78;;
11396;SDS011;5754;43.726;7.416;2023-05-28T05:27:28;9.70;;;5.60;;
11396;SDS011;5754;43.726;7.416;2023-05-28T05:30:03;8.83;;;5.73;;
11396;SDS011;5754;43.726;7.416;2023-05-28T05:32:39;9.20;;;5.68;;
11396;SDS011;5754;43.726;7.416;2023-05-28T05:35:14;7.53;;;5.53;;
11396;SDS011;5754;43.726;7.416;2023-05-28T05:38:20;7.20;;;5.57;;
11396;SDS011;5754;43.726;7.416;2023-05-28T05:41:51;10.63;;;5.90;;
11396;SDS011;5754;43.726;7.416;2023-05-28T05:44:31;13.83;;;7.20;;
11396;SDS011;5754;43.726;7.416;2023-05-28T05:47:06;12.45;;;6.00;;
11396;SDS011;5754;43.726;7.416;2023-05-28T05:49:41;11.57;;;5.62;;
11396;SDS011;5754;43.726;7.416;2023-05-28T05:52:17;7.90;;;5.50;;
11396;SDS011;5754;43.726;7.416;2023-05-28T05:54:54;7.68;;;6.15;;
11396;SDS011;5754;43.726;7.416;2023-05-28T05:57:30;7.00;;;5.78;;
11396;SDS011;5754;43.726;7.416;2023-05-28T06:00:18;7.68;;;5.37;;
11396;SDS011;5754;43.726;7.416;2023-05-28T06:02:57;12.43;;;6.60;;
11396;SDS011;5754;43.726;7.416;2023-05-28T06:05:50;9.97;;;6.30;;
11396;SDS011;5754;43.726;7.416;2023-05-28T06:08:39;7.43;;;6.53;;
11396;SDS011;5754;43.726;7.416;2023-05-28T06:11:23;8.00;;;7.20;;
11396;SDS011;5754;43.726;7.416;2023-05-28T06:13:59;9.90;;;6.93;;
11396;SDS011;5754;43.726;7.416;2023-05-28T06:16:35;8.87;;;6.67;;
11396;SDS011;5754;43.726;7.416;2023-05-28T06:19:09;13.62;;;7.87;;
11396;SDS011;5754;43.726;7.416;2023-05-28T06:21:44;8.33;;;6.80;;
11396;SDS011;5754;43.726;7.416;2023-05-28T06:24:19;9.55;;;6.75;;
11396;SDS011;5754;43.726;7.416;2023-05-28T06:26:55;9.07;;;6.53;;
11396;SDS011;5754;43.726;7.416;2023-05-28T06:29:30;11.80;;;6.50;;
11396;SDS011;5754;43.726;7.416;2023-05-28T06:32:06;6.47;;;5.87;;
11396;SDS011;5754;43.726;7.416;2023-05-28T06:34:41;9.40;;;6.30;;
11396;SDS011;5754;43.726;7.416;2023-05-28T06:37:18;8.07;;;6.00;;
11396;SDS011;5754;43.726;7.416;2023-05-28T06:39:54;11.70;;;7.45;;
11396;SDS011;5754;43.726;7.416;2023-05-28T06:42:29;11.32;;;7.82;;
11396;SDS011;5754;43.726;7.416;2023-05-28T06:45:15;9.35;;;7.03;;
11396;SDS011;5754;43.726;7.416;2023-05-28T06:47:52;9.68;;;6.32;;
11396;SDS011;5754;43.726;7.416;2023-05-28T06:50:27;9.32;;;6.18;;
11396;SDS011;5754;43.726;7.416;2023-05-28T06:53:05;7.62;;;6.20;;
11396;SDS011;5754;43.726;7.416;2023-05-28T06:55:43;9.57;;;6.37;;
11396;SDS011;5754;43.726;7.416;2023-05-28T06:59:05;8.20;;;6.28;;
11396;SDS011;5754;43.726;7.416;2023-05-28T07:01:52;10.03;;;6.33;;
11396;SDS011;5754;43.726;7.416;2023-05-28T07:04:41;6.78;;;6.15;;
11396;SDS011;5754;43.726;7.416;2023-05-28T07:07:20;10.73;;;6.90;;
11396;SDS011;5754;43.726;7.416;2023-05-28T07:09:55;9.57;;;6.65;;
11396;SDS011;5754;43.726;7.416;2023-05-28T07:12:30;7.57;;;6.32;;
11396;SDS011;5754;43.726;7.416;2023-05-28T07:15:06;9.20;;;6.65;;
11396;SDS011;5754;43.726;7.416;2023-05-28T07:17:42;13.05;;;6.87;;
11396;SDS011;5754;43.726;7.416;2023-05-28T07:20:18;8.43;;;6.45;;
11396;SDS011;5754;43.726;7.416;2023-05-28T07:22:57;8.77;;;6.45;;
11396;SDS011;5754;43.726;7.416;2023-05-28T07:25:33;7.53;;;5.97;;
11396;SDS011;5754;43.726;7.416;2023-05-28T07:28:08;9.38;;;5.85;;
11396;SDS011;5754;43.726;7.416;2023-05-28T07:30:44;8.20;;;5.80;;
11396;SDS011;5754;43.726;7.416;2023-05-28T07:33:19;7.00;;;5.15;;
11396;SDS011;5754;43.726;7.416;2023-05-28T07:35:55;9.25;;;5.82;;
11396;SDS011;5754;43.726;7.416;2023-05-28T07:38:30;8.93;;;5.40;;
11396;SDS011;5754;43.726;7.416;2023-05-28T07:41:07;6.15;;;4.90;;
11396;SDS011;5754;43.726;7.416;2023-05-28T07:43:49;7.70;;;5.45;;
11396;SDS011;5754;43.726;7.416;2023-05-28T07:46:29;6.75;;;5.28;;
11396;SDS011;5754;43.726;7.416;2023-05-28T07:49:11;10.40;;;5.43;;
11396;SDS011;5754;43.726;7.416;2023-05-28T07:51:53;6.30;;;4.85;;
11396;SDS011;5754;43.726;7.416;2023-05-28T07:54:33;6.22;;;4.90;;
11396;SDS011;5754;43.726;7.416;2023-05-28T07:57:08;8.48;;;5.10;;
11396;SDS011;5754;43.726;7.416;2023-05-28T07:59:46;5.32;;;4.82;;
11396;SDS011;5754;43.726;7.416;2023-05-28T08:02:22;5.85;;;4.47;;
11396;SDS011;5754;43.726;7.416;2023-05-28T08:04:58;5.85;;;4.12;;
11396;SDS011;5754;43.726;7.416;2023-05-28T08:07:34;4.82;;;4.32;;
11396;SDS011;5754;43.726;7.416;2023-05-28T08:10:10;8.43;;;4.50;;
11396;SDS011;5754;43.726;7.416;2023-05-28T08:12:58;7.07;;;4.15;;
11396;SDS011;5754;43.726;7.416;2023-05-28T08:15:35;6.15;;;4.47;;
11396;SDS011;5754;43.726;7.416;2023-05-28T08:18:12;6.80;;;4.00;;
11396;SDS011;5754;43.726;7.416;2023-05-28T08:20:47;4.32;;;3.92;;
11396;SDS011;5754;43.726;7.416;2023-05-28T08:23:31;7.65;;;4.47;;
11396;SDS011;5754;43.726;7.416;2023-05-28T08:26:09;6.55;;;4.18;;
11396;SDS011;5754;43.726;7.416;2023-05-28T08:28:44;7.90;;;4.40;;
11396;SDS011;5754;43.726;7.416;2023-05-28T08:31:19;6.68;;;5.00;;
11396;SDS011;5754;43.726;7.416;2023-05-28T08:34:57;6.03;;;4.95;;
11396;SDS011;5754;43.726;7.416;2023-05-28T08:37:33;7.00;;;4.80;;
11396;SDS011;5754;43.726;7.416;2023-05-28T08:40:31;5.68;;;4.47;;
11396;SDS011;5754;43.726;7.416;2023-05-28T08:43:07;5.15;;;4.55;;
11396;SDS011;5754;43.726;7.416;2023-05-28T08:45:44;8.25;;;5.00;;
11396;SDS011;5754;43.726;7.416;2023-05-28T08:48:19;7.80;;;4.75;;
11396;SDS011;5754;43.726;7.416;2023-05-28T08:50:54;8.25;;;5.15;;
11396;SDS011;5754;43.726;7.416;2023-05-28T08:53:43;7.43;;;5.35;;
11396;SDS011;5754;43.726;7.416;2023-05-28T08:56:19;6.07;;;4.90;;
11396;SDS011;5754;43.726;7.416;2023-05-28T08:58:55;9.32;;;5.22;;
11396;SDS011;5754;43.726;7.416;2023-05-28T09:01:31;9.40;;;5.85;;
11396;SDS011;5754;43.726;7.416;2023-05-28T09:04:15;13.50;;;6.32;;
11396;SDS011;5754;43.726;7.416;2023-05-28T09:06:52;11.43;;;6.35;;
11396;SDS011;5754;43.726;7.416;2023-05-28T09:09:52;10.73;;;5.40;;
11396;SDS011;5754;43.726;7.416;2023-05-28T09:12:27;6.85;;;5.32;;
11396;SDS011;5754;43.726;7.416;2023-05-28T09:15:07;8.82;;;5.07;;
11396;SDS011;5754;43.726;7.416;2023-05-28T09:17:42;7.53;;;5.30;;
11396;SDS011;5754;43.726;7.416;2023-05-28T09:20:23;10.40;;;5.65;;
11396;SDS011;5754;43.726;7.416;2023-05-28T09:23:01;15.23;;;6.40;;
11396;SDS011;5754;43.726;7.416;2023-05-28T09:26:09;8.00;;;5.50;;
11396;SDS011;5754;43.726;7.416;2023-05-28T09:28:50;10.38;;;6.10;;
11396;SDS011;5754;43.726;7.416;2023-05-28T09:31:31;10.93;;;5.95;;
11396;SDS011;5754;43.726;7.416;2023-05-28T09:34:08;11.65;;;5.95;;
11396;SDS011;5754;43.726;7.416;2023-05-28T09:36:42;9.52;;;6.00;;
11396;SDS011;5754;43.726;7.416;2023-05-28T09:39:17;7.80;;;6.35;;
11396;SDS011;5754;43.726;7.416;2023-05-28T09:41:59;11.93;;;6.80;;
11396;SDS011;5754;43.726;7.416;2023-05-28T09:44:38;12.55;;;7.07;;
11396;SDS011;5754;43.726;7.416;2023-05-28T09:47:16;8.23;;;6.60;;
11396;SDS011;5754;43.726;7.416;2023-05-28T09:49:52;8.68;;;6.40;;
11396;SDS011;5754;43.726;7.416;2023-05-28T09:52:42;11.00;;;6.65;;
11396;SDS011;5754;43.726;7.416;2023-05-28T09:55:20;9.68;;;6.40;;
11396;SDS011;5754;43.726;7.416;2023-05-28T09:58:01;11.68;;;7.00;;
11396;SDS011;5754;43.726;7.416;2023-05-28T10:00:44;8.52;;;6.07;;
11396;SDS011;5754;43.726;7.416;2023-05-28T10:03:28;8.15;;;6.32;;
11396;SDS011;5754;43.726;7.416;2023-05-28T10:06:10;8.15;;;6.18;;
11396;SDS011;5754;43.726;7.416;2023-05-28T10:08:52;13.43;;;6.05;;
11396;SDS011;5754;43.726;7.416;2023-05-28T10:11:29;10.20;;;5.75;;
11396;SDS011;5754;43.726;7.416;2023-05-28T10:14:05;9.43;;;6.20;;
11396;SDS011;5754;43.726;7.416;2023-05-28T10:16:41;7.60;;;5.72;;
11396;SDS011;5754;43.726;7.416;2023-05-28T10:19:16;10.95;;;6.12;;
11396;SDS011;5754;43.726;7.416;2023-05-28T10:21:52;11.48;;;8.15;;
11396;SDS011;5754;43.726;7.416;2023-05-28T10:24:27;11.63;;;7.00;;
11396;SDS011;5754;43.726;7.416;2023-05-28T10:27:06;10.88;;;6.70;;
11396;SDS011;5754;43.726;7.416;2023-05-28T10:29:42;8.48;;;6.43;;
11396;SDS011;5754;43.726;7.416;2023-05-28T10:32:18;12.27;;;6.70;;
11396;SDS011;5754;43.726;7.416;2023-05-28T10:35:00;8.77;;;6.30;;
11396;SDS011;5754;43.726;7.416;2023-05-28T10:37:36;12.02;;;7.20;;
11396;SDS011;5754;43.726;7.416;2023-05-28T10:40:12;14.05;;;7.05;;
11396;SDS011;5754;43.726;7.416;2023-05-28T10:42:56;14.87;;;6.95;;
11396;SDS011;5754;43.726;7.416;2023-05-28T10:45:35;8.88;;;5.97;;
11396;SDS011;5754;43.726;7.416;2023-05-28T10:48:12;10.13;;;6.10;;
11396;SDS011;5754;43.726;7.416;2023-05-28T10:50:57;9.00;;;6.45;;
11396;SDS011;5754;43.726;7.416;2023-05-28T10:53:46;7.28;;;6.20;;
11396;SDS011;5754;43.726;7.416;2023-05-28T10:56:21;8.55;;;5.90;;
11396;SDS011;5754;43.726;7.416;2023-05-28T10:58:55;11.70;;;5.65;;
11396;SDS011;5754;43.726;7.416;2023-05-28T11:01:31;8.15;;;5.03;;
11396;SDS011;5754;43.726;7.416;2023-05-28T11:04:06;7.15;;;4.93;;
11396;SDS011;5754;43.726;7.416;2023-05-28T11:06:44;6.75;;;5.25;;
11396;SDS011;5754;43.726;7.416;2023-05-28T11:09:20;7.60;;;5.25;;
11396;SDS011;5754;43.726;7.416;2023-05-28T11:11:58;8.68;;;5.00;;
11396;SDS011;5754;43.726;7.416;2023-05-28T11:14:36;13.45;;;5.45;;
11396;SDS011;5754;43.726;7.416;2023-05-28T11:17:13;13.40;;;6.00;;
11396;SDS011;5754;43.726;7.416;2023-05-28T11:19:49;9.85;;;6.32;;
11396;SDS011;5754;43.726;7.416;2023-05-28T11:22:31;14.52;;;10.57;;
11396;SDS011;5754;43.726;7.416;2023-05-28T11:25:08;9.88;;;5.85;;
11396;SDS011;5754;43.726;7.416;2023-05-28T11:27:46;8.00;;;5.87;;
11396;SDS011;5754;43.726;7.416;2023-05-28T11:30:21;7.00;;;5.53;;
11396;SDS011;5754;43.726;7.416;2023-05-28T11:33:01;7.62;;;4.78;;
11396;SDS011;5754;43.726;7.416;2023-05-28T11:35:36;13.02;;;5.20;;
11396;SDS011;5754;43.726;7.416;2023-05-28T11:38:12;7.37;;;5.47;;
11396;SDS011;5754;43.726;7.416;2023-05-28T11:40:47;9.55;;;5.40;;
11396;SDS011;5754;43.726;7.416;2023-05-28T11:43:24;8.50;;;5.30;;
11396;SDS011;5754;43.726;7.416;2023-05-28T11:46:01;8.27;;;5.07;;
11396;SDS011;5754;43.726;7.416;2023-05-28T11:48:37;11.68;;;5.22;;
11396;SDS011;5754;43.726;7.416;2023-05-28T11:51:12;7.25;;;4.87;;
11396;SDS011;5754;43.726;7.416;2023-05-28T11:53:47;13.13;;;5.30;;
11396;SDS011;5754;43.726;7.416;2023-05-28T11:56:26;11.63;;;5.85;;
11396;SDS011;5754;43.726;7.416;2023-05-28T11:59:01;14.50;;;6.00;;
11396;SDS011;5754;43.726;7.416;2023-05-28T12:01:38;15.40;;;6.55;;
11396;SDS011;5754;43.726;7.416;2023-05-28T12:04:14;16.42;;;5.70;;
11396;SDS011;5754;43.726;7.416;2023-05-28T12:06:52;12.82;;;5.15;;
11396;SDS011;5754;43.726;7.416;2023-05-28T12:09:28;9.85;;;5.45;;
11396;SDS011;5754;43.726;7.416;2023-05-28T12:12:09;8.98;;;5.60;;
11396;SDS011;5754;43.726;7.416;2023-05-28T12:14:46;10.25;;;5.25;;
11396;SDS011;5754;43.726;7.416;2023-05-28T12:17:21;9.18;;;5.60;;
11396;SDS011;5754;43.726;7.416;2023-05-28T12:19:56;16.55;;;6.15;;
11396;SDS011;5754;43.726;7.416;2023-05-28T12:22:31;12.60;;;6.37;;
11396;SDS011;5754;43.726;7.416;2023-05-28T12:25:07;11.23;;;5.60;;
11396;SDS011;5754;43.726;7.416;2023-05-28T12:27:42;9.27;;;5.57;;
11396;SDS011;5754;43.726;7.416;2023-05-28T12:30:17;6.28;;;4.72;;
11396;SDS011;5754;43.726;7.416;2023-05-28T12:32:52;7.37;;;4.10;;
11396;SDS011;5754;43.726;7.416;2023-05-28T12:35:27;5.80;;;3.70;;
11396;SDS011;5754;43.726;7.416;2023-05-28T12:38:02;4.32;;;3.35;;
11396;SDS011;5754;43.726;7.416;2023-05-28T12:40:38;4.12;;;3.28;;
11396;SDS011;5754;43.726;7.416;2023-05-28T12:43:13;5.72;;;4.25;;
11396;SDS011;5754;43.726;7.416;2023-05-28T12:45:49;7.60;;;4.20;;
11396;SDS011;5754;43.726;7.416;2023-05-28T12:48:24;7.82;;;4.35;;
11396;SDS011;5754;43.726;7.416;2023-05-28T12:50:58;5.80;;;3.83;;
11396;SDS011;5754;43.726;7.416;2023-05-28T12:53:34;4.47;;;3.90;;
11396;SDS011;5754;43.726;7.416;2023-05-28T12:56:09;7.62;;;4.00;;
11396;SDS011;5754;43.726;7.416;2023-05-28T12:58:44;6.55;;;4.37;;
11396;SDS011;5754;43.726;7.416;2023-05-28T13:01:19;5.30;;;3.92;;
11396;SDS011;5754;43.726;7.416;2023-05-28T13:03:55;7.50;;;4.35;;
11396;SDS011;5754;43.726;7.416;2023-05-28T13:06:30;8.75;;;4.80;;
11396;SDS011;5754;43.726;7.416;2023-05-28T13:09:06;9.75;;;5.10;;
11396;SDS011;5754;43.726;7.416;2023-05-28T13:11:41;5.20;;;4.15;;
11396;SDS011;5754;43.726;7.416;2023-05-28T13:14:29;6.45;;;3.90;;
11396;SDS011;5754;43.726;7.416;2023-05-28T13:17:09;3.70;;;3.40;;
11396;SDS011;5754;43.726;7.416;2023-05-28T13:19:44;7.70;;;4.20;;
11396;SDS011;5754;43.726;7.416;2023-05-28T13:22:19;9.20;;;4.07;;
11396;SDS011;5754;43.726;7.416;2023-05-28T13:24:53;5.07;;;4.07;;
11396;SDS011;5754;43.726;7.416;2023-05-28T13:27:28;5.65;;;3.95;;
11396;SDS011;5754;43.726;7.416;2023-05-28T13:30:04;5.25;;;3.67;;
11396;SDS011;5754;43.726;7.416;2023-05-28T13:32:40;5.03;;;4.00;;
11396;SDS011;5754;43.726;7.416;2023-05-28T13:35:15;4.95;;;4.10;;
11396;SDS011;5754;43.726;7.416;2023-05-28T13:37:51;7.50;;;4.30;;
11396;SDS011;5754;43.726;7.416;2023-05-28T13:40:26;6.32;;;4.30;;
11396;SDS011;5754;43.726;7.416;2023-05-28T13:43:02;9.35;;;4.28;;
11396;SDS011;5754;43.726;7.416;2023-05-28T13:45:38;6.87;;;4.55;;
11396;SDS011;5754;43.726;7.416;2023-05-28T13:48:14;6.80;;;4.28;;
11396;SDS011;5754;43.726;7.416;2023-05-28T13:50:49;4.12;;;3.83;;
11396;SDS011;5754;43.726;7.416;2023-05-28T13:53:28;5.15;;;4.10;;
11396;SDS011;5754;43.726;7.416;2023-05-28T13:56:03;6.65;;;4.43;;
11396;SDS011;5754;43.726;7.416;2023-05-28T13:58:51;6.90;;;4.80;;
11396;SDS011;5754;43.726;7.416;2023-05-28T14:01:27;5.90;;;4.20;;
11396;SDS011;5754;43.726;7.416;2023-05-28T14:04:03;4.40;;;4.00;;
11396;SDS011;5754;43.726;7.416;2023-05-28T14:06:37;5.32;;;3.80;;
11396;SDS011;5754;43.726;7.416;2023-05-28T14:09:12;5.70;;;4.37;;
11396;SDS011;5754;43.726;7.416;2023-05-28T14:11:47;5.15;;;4.03;;
11396;SDS011;5754;43.726;7.416;2023-05-28T14:14:41;5.78;;;4.37;;
11396;SDS011;5754;43.726;7.416;2023-05-28T14:17:16;5.72;;;4.78;;
11396;SDS011;5754;43.726;7.416;2023-05-28T14:19:51;5.03;;;4.53;;
11396;SDS011;5754;43.726;7.416;2023-05-28T14:22:27;5.00;;;4.50;;
11396;SDS011;5754;43.726;7.416;2023-05-28T14:25:03;7.07;;;4.65;;
11396;SDS011;5754;43.726;7.416;2023-05-28T14:27:38;6.82;;;4.37;;
11396;SDS011;5754;43.726;7.416;2023-05-28T14:30:13;8.77;;;5.30;;
11396;SDS011;5754;43.726;7.416;2023-05-28T14:32:52;6.55;;;4.85;;
11396;SDS011;5754;43.726;7.416;2023-05-28T14:35:27;7.85;;;4.82;;
11396;SDS011;5754;43.726;7.416;2023-05-28T14:38:01;7.28;;;4.87;;
11396;SDS011;5754;43.726;7.416;2023-05-28T14:40:37;6.60;;;4.95;;
11396;SDS011;5754;43.726;7.416;2023-05-28T14:43:12;6.62;;;4.80;;
11396;SDS011;5754;43.726;7.416;2023-05-28T14:45:47;7.93;;;4.72;;
11396;SDS011;5754;43.726;7.416;2023-05-28T14:48:24;5.87;;;4.78;;
11396;SDS011;5754;43.726;7.416;2023-05-28T14:50:59;8.20;;;5.00;;
11396;SDS011;5754;43.726;7.416;2023-05-28T14:53:37;7.53;;;5.10;;
11396;SDS011;5754;43.726;7.416;2023-05-28T14:56:12;7.28;;;5.10;;
11396;SDS011;5754;43.726;7.416;2023-05-28T14:58:47;7.12;;;5.43;;
11396;SDS011;5754;43.726;7.416;2023-05-28T15:01:23;5.78;;;4.82;;
11396;SDS011;5754;43.726;7.416;2023-05-28T15:03:57;7.28;;;4.90;;
11396;SDS011;5754;43.726;7.416;2023-05-28T15:06:32;5.47;;;4.60;;
11396;SDS011;5754;43.726;7.416;2023-05-28T15:09:07;5.60;;;5.05;;
11396;SDS011;5754;43.726;7.416;2023-05-28T15:11:43;5.10;;;4.57;;
11396;SDS011;5754;43.726;7.416;2023-05-28T15:14:17;6.22;;;4.75;;
11396;SDS011;5754;43.726;7.416;2023-05-28T15:16:53;4.87;;;4.47;;
11396;SDS011;5754;43.726;7.416;2023-05-28T15:19:28;6.35;;;4.95;;
11396;SDS011;5754;43.726;7.416;2023-05-28T15:22:04;5.65;;;5.15;;
11396;SDS011;5754;43.726;7.416;2023-05-28T15:24:39;5.12;;;4.70;;
11396;SDS011;5754;43.726;7.416;2023-05-28T15:27:14;5.22;;;4.72;;
11396;SDS011;5754;43.726;7.416;2023-05-28T15:29:49;5.32;;;4.68;;
11396;SDS011;5754;43.726;7.416;2023-05-28T15:32:25;5.40;;;4.80;;
11396;SDS011;5754;43.726;7.416;2023-05-28T15:35:00;5.28;;;4.78;;
11396;SDS011;5754;43.726;7.416;2023-05-28T15:37:35;4.37;;;3.55;;
11396;SDS011;5754;43.726;7.416;2023-05-28T15:40:11;6.07;;;3.62;;
11396;SDS011;5754;43.726;7.416;2023-05-28T15:42:47;6.47;;;3.85;;
11396;SDS011;5754;43.726;7.416;2023-05-28T15:45:22;4.93;;;3.37;;
11396;SDS011;5754;43.726;7.416;2023-05-28T15:47:57;8.50;;;3.90;;
11396;SDS011;5754;43.726;7.416;2023-05-28T15:50:33;9.02;;;5.50;;
11396;SDS011;5754;43.726;7.416;2023-05-28T15:53:08;6.03;;;4.90;;
11396;SDS011;5754;43.726;7.416;2023-05-28T15:55:44;9.73;;;5.50;;
11396;SDS011;5754;43.726;7.416;2023-05-28T15:58:19;8.20;;;5.87;;
11396;SDS011;5754;43.726;7.416;2023-05-28T16:00:53;9.63;;;5.85;;